createdAt,value
2018-07-08T00:00:53.822Z,60.36
2018-07-08T00:03:21.154Z,60.10
2018-07-08T00:05:48.430Z,60.01
2018-07-08T00:08:15.710Z,59.51
2018-07-08T00:10:49.622Z,59.76
2018-07-08T00:13:16.958Z,60.06
2018-07-08T00:15:45.808Z,59.35
2018-07-08T00:21:03.620Z,60.39
2018-07-08T00:23:30.862Z,60.56
2018-07-08T00:25:58.216Z,60.38
2018-07-08T00:28:25.470Z,60.38
2018-07-08T00:30:52.719Z,60.57
2018-07-08T00:33:20.070Z,60.14
2018-07-08T00:35:47.327Z,60.98
2018-07-08T00:38:14.633Z,61.22
2018-07-08T00:40:41.940Z,60.88
2018-07-08T00:43:09.268Z,61.53
2018-07-08T00:45:36.541Z,61.59
2018-07-08T00:48:03.872Z,61.61
2018-07-08T00:50:31.158Z,61.29
2018-07-08T00:52:58.487Z,61.09
2018-07-08T00:55:25.786Z,61.19
2018-07-08T00:57:53.025Z,61.00
2018-07-08T01:00:30.616Z,61.31
2018-07-08T01:02:58.076Z,61.35
2018-07-08T01:05:25.331Z,61.14
2018-07-08T01:07:52.610Z,61.36
2018-07-08T01:10:20.122Z,61.81
2018-07-08T01:12:47.560Z,62.36
2018-07-08T01:15:14.991Z,62.47
2018-07-08T01:17:42.267Z,62.33
2018-07-08T01:20:09.546Z,63.33
2018-07-08T01:22:36.796Z,63.04
2018-07-08T01:25:11.555Z,63.63
2018-07-08T01:27:39.143Z,64.76
2018-07-08T01:30:06.605Z,64.21
2018-07-08T01:32:34.738Z,64.40
2018-07-08T01:35:02.107Z,64.34
2018-07-08T01:37:29.681Z,64.11
2018-07-08T01:39:56.934Z,64.46
2018-07-08T01:42:24.243Z,63.83
2018-07-08T01:44:51.503Z,63.70
2018-07-08T01:47:18.786Z,64.16
2018-07-08T01:49:46.048Z,63.85
2018-07-08T01:52:13.305Z,63.86
2018-07-08T01:54:40.997Z,64.11
2018-07-08T01:57:08.511Z,63.79
2018-07-08T01:59:35.823Z,64.19
2018-07-08T02:02:03.661Z,63.64
2018-07-08T02:04:30.900Z,64.32
2018-07-08T02:06:58.229Z,64.20
2018-07-08T02:09:25.702Z,64.45
2018-07-08T02:11:52.920Z,64.10
2018-07-08T02:14:21.490Z,64.26
2018-07-08T02:16:48.787Z,64.53
2018-07-08T02:19:16.136Z,65.08
2018-07-08T02:21:43.394Z,65.41
2018-07-08T02:24:10.698Z,64.99
2018-07-08T02:26:37.965Z,65.59
2018-07-08T02:29:05.208Z,66.22
2018-07-08T02:31:32.456Z,66.24
2018-07-08T02:33:59.785Z,66.11
2018-07-08T02:36:27.232Z,65.76
2018-07-08T02:38:54.536Z,65.70
2018-07-08T02:41:21.814Z,66.29
2018-07-08T02:43:49.110Z,66.47
2018-07-08T02:46:16.430Z,66.04
2018-07-08T02:48:44.397Z,66.37
2018-07-08T02:51:11.686Z,66.20
2018-07-08T02:53:39.076Z,66.13
2018-07-08T02:56:06.538Z,66.43
2018-07-08T02:58:33.872Z,66.42
2018-07-08T03:01:01.142Z,66.66
2018-07-08T03:03:28.471Z,67.19
2018-07-08T03:05:55.742Z,67.67
2018-07-08T03:08:23.150Z,67.43
2018-07-08T03:10:50.471Z,67.81
2018-07-08T03:13:17.873Z,67.67
2018-07-08T03:15:45.161Z,67.07
2018-07-08T03:18:12.532Z,67.23
2018-07-08T03:20:40.754Z,66.84
2018-07-08T03:23:09.476Z,66.77
2018-07-08T03:25:37.179Z,67.35
2018-07-08T03:28:04.725Z,66.61
2018-07-08T03:30:32.030Z,66.71
2018-07-08T03:32:59.410Z,66.63
2018-07-08T03:35:26.731Z,66.32
2018-07-08T03:37:54.077Z,66.17
2018-07-08T03:40:21.451Z,66.06
2018-07-08T03:42:48.774Z,65.73
2018-07-08T03:45:16.135Z,65.73
2018-07-08T03:47:43.471Z,65.27
2018-07-08T03:50:10.889Z,64.94
2018-07-08T03:52:38.980Z,64.93
2018-07-08T03:55:06.394Z,64.91
2018-07-08T03:57:33.835Z,64.43
2018-07-08T04:00:01.204Z,64.66
2018-07-08T04:02:29.063Z,65.10
2018-07-08T04:04:56.395Z,64.90
2018-07-08T04:07:23.838Z,64.57
2018-07-08T04:09:51.256Z,64.56
2018-07-08T04:12:18.601Z,64.02
2018-07-08T04:14:46.483Z,64.21
2018-07-08T04:17:13.801Z,63.55
2018-07-08T04:19:41.732Z,62.97
2018-07-08T04:22:09.000Z,62.91
2018-07-08T04:24:36.440Z,62.84
2018-07-08T04:27:03.836Z,62.00
2018-07-08T04:29:31.184Z,62.02
2018-07-08T04:31:58.523Z,60.70
2018-07-08T04:34:26.065Z,60.36
2018-07-08T04:36:53.399Z,59.21
2018-07-08T04:39:20.786Z,59.38
2018-07-08T04:41:48.203Z,58.46
2018-07-08T04:44:15.515Z,57.57
2018-07-08T04:46:42.885Z,55.97
2018-07-08T04:49:10.320Z,55.35
2018-07-08T04:51:37.621Z,54.91
2018-07-08T04:54:05.020Z,54.17
2018-07-08T04:56:32.360Z,53.50
2018-07-08T04:58:59.734Z,52.86
2018-07-08T05:01:27.676Z,52.81
2018-07-08T05:03:55.111Z,52.21
2018-07-08T05:06:22.454Z,51.94
2018-07-08T05:08:49.877Z,51.04
2018-07-08T05:11:17.196Z,51.15
2018-07-08T05:13:44.498Z,50.75
2018-07-08T05:16:11.880Z,50.83
2018-07-08T05:18:39.672Z,51.25
2018-07-08T05:21:07.480Z,50.74
2018-07-08T05:23:34.792Z,50.47
2018-07-08T05:26:02.125Z,49.73
2018-07-08T05:28:29.462Z,49.84
2018-07-08T05:30:56.823Z,48.95
2018-07-08T05:33:24.151Z,48.55
2018-07-08T05:35:51.519Z,47.93
2018-07-08T05:38:18.807Z,48.31
2018-07-08T05:40:46.291Z,49.48
2018-07-08T05:43:13.494Z,49.26
2018-07-08T05:45:40.869Z,48.63
2018-07-08T05:48:08.192Z,48.76
2018-07-08T05:50:35.589Z,47.90
2018-07-08T05:53:02.963Z,48.31
2018-07-08T05:55:30.322Z,47.63
2018-07-08T05:57:57.660Z,47.42
2018-07-08T06:00:25.088Z,46.78
2018-07-08T06:02:52.425Z,47.60
2018-07-08T06:05:19.750Z,48.39
2018-07-08T06:07:47.078Z,48.69
2018-07-08T06:10:14.492Z,48.09
2018-07-08T06:12:41.869Z,47.15
2018-07-08T06:15:09.267Z,47.29
2018-07-08T06:17:36.865Z,47.37
2018-07-08T06:20:06.397Z,47.52
2018-07-08T06:22:33.727Z,45.96
2018-07-08T06:25:01.065Z,45.30
2018-07-08T06:27:28.440Z,45.05
2018-07-08T06:29:55.788Z,45.44
2018-07-08T06:32:23.099Z,45.06
2018-07-08T06:34:51.151Z,44.04
2018-07-08T06:37:19.054Z,45.47
2018-07-08T06:39:46.459Z,44.96
2018-07-08T06:42:13.999Z,45.45
2018-07-08T06:44:42.192Z,46.51
2018-07-08T06:47:09.529Z,46.33
2018-07-08T06:49:36.912Z,46.06
2018-07-08T06:52:04.345Z,45.07
2018-07-08T06:54:31.736Z,45.24
2018-07-08T06:56:59.113Z,45.67
2018-07-08T06:59:26.591Z,45.26
2018-07-08T07:01:54.251Z,44.75
2018-07-08T07:04:22.112Z,44.26
2018-07-08T07:06:49.591Z,44.81
2018-07-08T07:09:16.911Z,44.58
2018-07-08T07:11:44.318Z,44.01
2018-07-08T07:14:11.673Z,42.67
2018-07-08T07:16:39.010Z,42.41
2018-07-08T07:19:06.742Z,41.86
2018-07-08T07:21:34.213Z,41.39
2018-07-08T07:24:01.562Z,39.66
2018-07-08T07:26:28.891Z,40.00
2018-07-08T07:28:56.218Z,39.76
2018-07-08T07:31:23.626Z,39.32
2018-07-08T07:33:51.155Z,39.05
2018-07-08T07:36:18.524Z,38.34
2018-07-08T07:38:45.841Z,38.50
2018-07-08T07:41:13.223Z,38.97
2018-07-08T07:43:40.508Z,38.51
2018-07-08T07:46:07.829Z,38.42
2018-07-08T07:48:35.355Z,38.17
2018-07-08T07:51:02.719Z,37.92
2018-07-08T07:53:30.209Z,37.72
2018-07-08T07:55:57.573Z,38.62
2018-07-08T07:58:25.497Z,38.16
2018-07-08T08:00:52.853Z,37.41
2018-07-08T08:03:20.179Z,36.98
2018-07-08T08:05:47.526Z,35.77
2018-07-08T08:08:18.105Z,35.55
2018-07-08T08:10:45.678Z,36.24
2018-07-08T08:13:13.755Z,35.31
2018-07-08T08:15:41.353Z,34.72
2018-07-08T08:18:08.718Z,34.36
2018-07-08T08:20:36.009Z,33.99
2018-07-08T08:23:03.573Z,33.20
2018-07-08T08:25:30.874Z,34.31
2018-07-08T08:27:58.242Z,33.94
2018-07-08T08:30:25.555Z,34.84
2018-07-08T08:32:53.176Z,34.16
2018-07-08T08:35:20.547Z,32.85
2018-07-08T08:37:49.858Z,32.38
2018-07-08T08:40:18.108Z,32.37
2018-07-08T08:42:45.495Z,32.10
2018-07-08T08:45:14.089Z,32.14
2018-07-08T08:47:41.654Z,32.25
2018-07-08T08:50:09.709Z,32.46
2018-07-08T08:52:37.035Z,32.16
2018-07-08T08:55:04.932Z,31.63
2018-07-08T08:57:32.959Z,31.99
2018-07-08T09:00:00.311Z,32.10
2018-07-08T09:02:27.661Z,31.89
2018-07-08T09:04:54.997Z,30.92
2018-07-08T09:07:22.602Z,30.24
2018-07-08T09:09:49.993Z,30.40
2018-07-08T09:12:17.327Z,29.95
2018-07-08T09:14:44.679Z,30.38
2018-07-08T09:17:12.244Z,30.22
2018-07-08T09:19:39.626Z,30.30
2018-07-08T09:22:07.796Z,29.92
2018-07-08T09:24:35.143Z,30.05
2018-07-08T09:27:02.501Z,30.14
2018-07-08T09:29:29.869Z,30.96
2018-07-08T09:31:57.423Z,31.07
2018-07-08T09:34:24.818Z,28.56
2018-07-08T09:36:52.169Z,28.71
2018-07-08T09:39:19.603Z,28.60
2018-07-08T09:41:47.306Z,29.80
2018-07-08T09:44:15.492Z,30.25
2018-07-08T09:46:44.091Z,29.48
2018-07-08T09:49:11.762Z,28.56
2018-07-08T09:51:39.218Z,28.40
2018-07-08T09:54:06.594Z,27.42
2018-07-08T09:56:34.406Z,28.03
2018-07-08T09:59:01.778Z,28.62
2018-07-08T10:01:30.434Z,28.24
2018-07-08T10:03:57.762Z,26.92
2018-07-08T10:06:25.119Z,27.97
2018-07-08T10:08:52.457Z,28.75
2018-07-08T10:11:19.812Z,28.40
2018-07-08T10:13:47.195Z,28.47
2018-07-08T10:16:14.614Z,27.48
2018-07-08T10:18:41.995Z,28.60
2018-07-08T10:21:09.409Z,28.10
2018-07-08T10:23:36.778Z,29.84
2018-07-08T10:26:04.334Z,28.49
2018-07-08T10:28:31.812Z,28.75
2018-07-08T10:30:59.196Z,27.12
2018-07-08T10:33:33.246Z,27.81
2018-07-08T10:36:01.830Z,28.58
2018-07-08T10:38:29.149Z,29.18
2018-07-08T10:40:56.522Z,29.33
2018-07-08T10:43:24.108Z,30.41
2018-07-08T10:45:51.426Z,31.72
2018-07-08T10:48:19.453Z,30.91
2018-07-08T10:50:46.963Z,31.10
2018-07-08T10:53:14.356Z,30.11
2018-07-08T10:55:41.722Z,30.53
2018-07-08T10:58:09.679Z,29.29
2018-07-08T11:00:37.120Z,30.08
2018-07-08T11:03:05.656Z,32.44
2018-07-08T11:05:33.080Z,33.15
2018-07-08T11:08:00.556Z,33.03
2018-07-08T11:10:27.972Z,33.02
2018-07-08T11:12:55.829Z,32.29
2018-07-08T11:15:23.461Z,32.70
2018-07-08T11:17:50.838Z,32.08
2018-07-08T11:20:18.763Z,31.83
2018-07-08T11:22:46.470Z,30.79
2018-07-08T11:25:14.896Z,30.15
2018-07-08T11:27:42.238Z,30.05
2018-07-08T11:30:09.566Z,31.16
2018-07-08T11:32:37.823Z,32.73
2018-07-08T11:35:07.746Z,32.91
2018-07-08T11:37:35.095Z,33.51
2018-07-08T11:40:02.503Z,33.22
2018-07-08T11:42:30.003Z,33.03
2018-07-08T11:44:57.775Z,32.48
2018-07-08T11:47:25.245Z,31.49
2018-07-08T11:49:52.585Z,31.88
2018-07-08T11:52:20.147Z,30.62
2018-07-08T11:54:47.634Z,29.39
2018-07-08T11:57:14.983Z,29.74
2018-07-08T11:59:42.330Z,29.80
2018-07-08T12:02:09.710Z,31.37
2018-07-08T12:04:37.290Z,30.69
2018-07-08T12:07:04.754Z,31.87
2018-07-08T12:09:32.172Z,32.54
2018-07-08T12:11:59.720Z,31.80
2018-07-08T12:14:27.540Z,30.27
2018-07-08T12:16:55.279Z,29.28
2018-07-08T12:19:22.625Z,30.14
2018-07-08T12:21:50.003Z,31.04
2018-07-08T12:24:17.388Z,30.08
2018-07-08T12:26:44.812Z,29.61
2018-07-08T12:29:12.304Z,28.72
2018-07-08T12:31:40.389Z,29.46
2018-07-08T12:34:08.651Z,28.75
2018-07-08T12:36:36.922Z,28.42
2018-07-08T12:39:06.692Z,27.32
2018-07-08T12:41:34.094Z,26.11
2018-07-08T12:44:01.540Z,27.70
2018-07-08T12:46:28.885Z,29.01
2018-07-08T12:48:56.862Z,29.84
2018-07-08T12:51:24.839Z,28.72
2018-07-08T12:53:52.269Z,30.88
2018-07-08T12:56:19.645Z,30.90
2018-07-08T12:58:47.045Z,31.98
2018-07-08T13:01:14.602Z,30.86
2018-07-08T13:03:42.445Z,30.61
2018-07-08T13:06:09.794Z,29.23
2018-07-08T13:08:37.181Z,29.65
2018-07-08T13:11:04.601Z,29.44
2018-07-08T13:13:32.205Z,30.40
2018-07-08T13:15:59.515Z,31.98
2018-07-08T13:18:26.881Z,32.52
2018-07-08T13:20:54.326Z,33.20
2018-07-08T13:23:21.658Z,33.44
2018-07-08T13:25:49.003Z,33.23
2018-07-08T13:28:16.378Z,32.98
2018-07-08T13:30:43.816Z,33.58
2018-07-08T13:33:11.127Z,32.63
2018-07-08T13:35:38.472Z,31.92
2018-07-08T13:38:05.836Z,31.83
2018-07-08T13:40:33.216Z,31.49
2018-07-08T13:43:00.541Z,31.51
2018-07-08T13:45:27.981Z,31.84
2018-07-08T13:47:55.330Z,31.96
2018-07-08T13:50:22.726Z,31.37
2018-07-08T13:52:50.245Z,31.33
2018-07-08T13:55:17.655Z,30.87
2018-07-08T13:57:45.600Z,30.79
2018-07-08T14:00:13.144Z,30.44
2018-07-08T14:02:40.469Z,30.77
2018-07-08T14:05:07.886Z,29.67
2018-07-08T14:07:35.271Z,29.78
2018-07-08T14:10:02.759Z,30.35
2018-07-08T14:12:30.120Z,30.50
2018-07-08T14:14:58.069Z,30.29
2018-07-08T14:17:25.471Z,29.70
2018-07-08T14:19:52.869Z,29.49
2018-07-08T14:22:20.223Z,29.90
2018-07-08T14:24:47.579Z,29.24
2018-07-08T14:27:14.967Z,29.62
2018-07-08T14:29:42.338Z,29.43
2018-07-08T14:32:09.762Z,29.93
2018-07-08T14:34:37.117Z,30.58
2018-07-08T14:37:05.066Z,30.84
2018-07-08T14:39:32.398Z,32.15
2018-07-08T14:41:59.762Z,32.28
2018-07-08T14:44:27.092Z,32.12
2018-07-08T14:46:54.445Z,32.51
2018-07-08T14:49:21.747Z,32.79
2018-07-08T14:51:49.151Z,33.38
2018-07-08T14:54:16.563Z,33.45
2018-07-08T14:56:43.947Z,32.57
2018-07-08T14:59:12.261Z,32.31
2018-07-08T15:01:39.636Z,32.82
2018-07-08T15:04:06.974Z,32.99
2018-07-08T15:06:34.351Z,33.66
2018-07-08T15:09:04.736Z,33.01
2018-07-08T15:11:32.202Z,33.07
2018-07-08T15:14:00.119Z,33.43
2018-07-08T15:16:27.595Z,33.25
2018-07-08T15:18:54.928Z,33.44
2018-07-08T15:21:22.369Z,33.83
2018-07-08T15:23:49.737Z,34.20
2018-07-08T15:26:17.144Z,34.73
2018-07-08T15:28:44.698Z,34.26
2018-07-08T15:31:12.242Z,33.80
2018-07-08T15:33:39.616Z,33.83
2018-07-08T15:36:07.016Z,34.37
2018-07-08T15:38:34.361Z,34.68
2018-07-08T15:41:01.834Z,34.95
2018-07-08T15:43:29.178Z,35.03
2018-07-08T15:45:57.015Z,34.94
2018-07-08T15:48:24.336Z,35.68
2018-07-08T15:50:52.477Z,35.18
2018-07-08T15:53:19.885Z,35.32
2018-07-08T15:55:48.193Z,35.26
2018-07-08T15:58:15.542Z,34.82
2018-07-08T16:00:42.914Z,34.65
2018-07-08T16:03:10.316Z,35.03
2018-07-08T16:05:37.667Z,34.76
2018-07-08T16:08:05.539Z,35.19
2018-07-08T16:10:32.908Z,35.05
2018-07-08T16:13:00.367Z,35.93
2018-07-08T16:15:27.772Z,35.54
2018-07-08T16:17:55.185Z,35.91
2018-07-08T16:20:22.613Z,35.48
2018-07-08T16:22:50.007Z,35.97
2018-07-08T16:25:17.346Z,35.47
2018-07-08T16:27:44.730Z,35.79
2018-07-08T16:30:12.106Z,35.97
2018-07-08T16:32:40.084Z,35.56
2018-07-08T16:35:07.442Z,36.12
2018-07-08T16:37:34.834Z,37.35
2018-07-08T16:40:02.712Z,37.61
2018-07-08T16:42:30.067Z,38.01
2018-07-08T16:44:57.390Z,37.68
2018-07-08T16:47:24.770Z,38.08
2018-07-08T16:49:52.088Z,38.96
2018-07-08T16:52:19.468Z,38.17
2018-07-08T16:54:47.609Z,38.25
2018-07-08T16:57:14.927Z,38.03
2018-07-08T16:59:42.264Z,37.52
2018-07-08T17:02:09.721Z,38.26
2018-07-08T17:04:37.572Z,38.02
2018-07-08T17:07:05.619Z,37.55
2018-07-08T17:09:32.996Z,37.68
2018-07-08T17:12:00.388Z,37.86
2018-07-08T17:14:27.714Z,37.91
2018-07-08T17:16:55.177Z,38.17
2018-07-08T17:19:23.147Z,38.36
2018-07-08T17:21:51.084Z,38.63
2018-07-08T17:24:18.591Z,38.43
2018-07-08T17:26:46.020Z,38.05
2018-07-08T17:29:13.534Z,37.80
2018-07-08T17:31:41.590Z,37.43
2018-07-08T17:34:08.955Z,38.33
2018-07-08T17:36:36.402Z,38.64
2018-07-08T17:39:04.593Z,38.26
2018-07-08T17:41:31.926Z,38.14
2018-07-08T17:44:01.115Z,38.31
2018-07-08T17:46:28.597Z,38.15
2018-07-08T17:48:57.323Z,37.90
2018-07-08T17:51:25.027Z,39.04
2018-07-08T17:53:52.415Z,39.33
2018-07-08T17:56:19.750Z,39.63
2018-07-08T17:58:47.737Z,39.58
2018-07-08T18:01:17.195Z,39.83
2018-07-08T18:03:44.942Z,39.92
2018-07-08T18:06:12.440Z,40.21
2018-07-08T18:08:40.022Z,40.22
2018-07-08T18:11:08.641Z,40.44
2018-07-08T18:13:37.058Z,40.58
2018-07-08T18:16:05.161Z,41.51
2018-07-08T18:18:33.948Z,41.69
2018-07-08T18:21:02.603Z,41.44
2018-07-08T18:23:30.983Z,41.18
2018-07-08T18:26:00.052Z,41.41
2018-07-08T18:28:27.715Z,41.49
2018-07-08T18:30:56.575Z,41.50
2018-07-08T18:33:25.135Z,42.10
2018-07-08T18:35:55.701Z,41.83
2018-07-08T18:38:26.420Z,42.17
2018-07-08T18:41:01.177Z,42.70
2018-07-08T18:43:32.099Z,42.65
2018-07-08T18:46:01.517Z,43.98
2018-07-08T18:48:31.729Z,44.80
2018-07-08T18:51:02.052Z,44.64
2018-07-08T18:53:34.154Z,44.80
2018-07-08T18:56:03.809Z,45.57
2018-07-08T18:58:48.473Z,46.72
2018-07-08T19:01:21.070Z,47.72
2018-07-08T19:03:55.980Z,48.56
2018-07-08T19:06:27.306Z,49.44
2018-07-08T19:08:58.640Z,49.67
2018-07-08T19:11:30.073Z,49.38
2018-07-08T19:13:59.624Z,50.25
2018-07-08T19:16:32.024Z,50.11
2018-07-08T19:19:01.066Z,51.06
2018-07-08T19:21:29.955Z,51.22
2018-07-08T19:23:59.290Z,51.19
2018-07-08T19:26:30.532Z,51.14
2018-07-08T19:29:01.652Z,52.14
2018-07-08T19:31:29.895Z,51.57
2018-07-08T19:33:58.911Z,52.26
2018-07-08T19:36:27.199Z,52.71
2018-07-08T19:38:57.141Z,52.53
2018-07-08T19:41:25.289Z,52.57
2018-07-08T19:43:52.962Z,52.57
2018-07-08T19:46:21.754Z,52.53
2018-07-08T19:48:50.080Z,52.57
2018-07-08T19:51:17.456Z,52.82
2018-07-08T19:53:46.677Z,53.33
2018-07-08T19:56:14.052Z,53.35
2018-07-08T19:58:42.069Z,53.19
2018-07-08T20:01:09.665Z,53.44
2018-07-08T20:03:37.238Z,54.07
2018-07-08T20:06:04.732Z,54.12
2018-07-08T20:08:32.243Z,54.12
2018-07-08T20:11:00.888Z,55.03
2018-07-08T20:13:28.386Z,55.05
2018-07-08T20:15:55.779Z,54.60
2018-07-08T20:18:23.314Z,54.50
2018-07-08T20:20:50.691Z,54.45
2018-07-08T20:23:18.006Z,54.04
2018-07-08T20:25:45.273Z,54.89
2018-07-08T20:28:12.526Z,54.95
2018-07-08T20:30:39.933Z,55.66
2018-07-08T20:33:07.210Z,55.93
2018-07-08T20:35:34.743Z,55.67
2018-07-08T20:38:02.076Z,55.78
2018-07-08T20:40:29.629Z,55.58
2018-07-08T20:42:56.881Z,55.40
2018-07-08T20:45:24.185Z,55.62
2018-07-08T20:47:51.508Z,54.81
2018-07-08T20:50:18.971Z,55.27
2018-07-08T20:52:46.270Z,55.31
2018-07-08T20:55:13.594Z,55.16
2018-07-08T20:57:40.894Z,54.99
2018-07-08T21:00:08.198Z,55.65
2018-07-08T21:02:35.490Z,55.92
2018-07-08T21:05:02.844Z,55.36
2018-07-08T21:07:30.113Z,55.85
2018-07-08T21:09:57.421Z,55.58
2018-07-08T21:12:24.655Z,55.92
2018-07-08T21:14:51.937Z,55.88
2018-07-08T21:17:19.200Z,55.55
2018-07-08T21:19:46.475Z,55.72
2018-07-08T21:22:13.759Z,55.55
2018-07-08T21:24:41.072Z,55.58
2018-07-08T21:27:08.535Z,55.33
2018-07-08T21:29:35.816Z,55.65
2018-07-08T21:32:03.113Z,55.81
2018-07-08T21:34:30.399Z,55.49
2018-07-08T21:36:57.700Z,55.40
2018-07-08T21:39:24.972Z,56.32
2018-07-08T21:41:52.229Z,56.73
2018-07-08T21:44:19.559Z,57.14
2018-07-08T21:46:46.849Z,57.45
2018-07-08T21:49:14.088Z,57.95
2018-07-08T21:51:41.362Z,58.28
2018-07-08T21:54:08.601Z,58.47
2018-07-08T21:56:35.874Z,58.93
2018-07-08T21:59:03.139Z,59.22
2018-07-08T22:01:36.141Z,59.80
2018-07-08T22:04:03.437Z,59.69
2018-07-08T22:06:30.852Z,59.61
2018-07-08T22:08:58.218Z,59.59
2018-07-08T22:11:25.501Z,59.70
2018-07-08T22:13:52.744Z,59.65
2018-07-08T22:16:20.018Z,59.99
2018-07-08T22:18:47.294Z,60.09
2018-07-08T22:21:14.537Z,60.32
2018-07-08T22:23:41.779Z,60.23
2018-07-08T22:26:09.055Z,60.58
2018-07-08T22:28:36.261Z,60.13
2018-07-08T22:31:03.676Z,59.89
2018-07-08T22:33:30.931Z,60.55
2018-07-08T22:35:58.227Z,60.62
2018-07-08T22:38:25.470Z,60.93
2018-07-08T22:40:52.736Z,60.92
2018-07-08T22:43:19.979Z,61.48
2018-07-08T22:45:47.243Z,62.03
2018-07-08T22:48:14.478Z,61.97
2018-07-08T22:50:41.759Z,62.32
2018-07-08T22:53:09.002Z,63.22
2018-07-08T22:55:36.266Z,63.25
2018-07-08T22:58:04.162Z,63.08
2018-07-08T23:00:42.909Z,63.58
2018-07-08T23:03:53.113Z,63.58
2018-07-08T23:06:20.830Z,64.29
2018-07-08T23:08:48.916Z,64.06
2018-07-08T23:11:16.229Z,64.14
2018-07-08T23:13:43.747Z,63.88
2018-07-08T23:16:11.048Z,63.03
2018-07-08T23:18:38.283Z,62.48
2018-07-08T23:21:05.550Z,63.07
2018-07-08T23:23:32.861Z,62.61
2018-07-08T23:26:00.139Z,63.11
2018-07-08T23:28:27.390Z,64.04
2018-07-08T23:30:54.684Z,64.33
2018-07-08T23:33:21.926Z,64.26
2018-07-08T23:35:49.227Z,63.58
2018-07-08T23:38:16.477Z,63.62
2018-07-08T23:40:43.771Z,64.22
2018-07-08T23:43:11.022Z,64.02
2018-07-08T23:45:38.314Z,64.32
2018-07-08T23:48:05.614Z,64.26
2018-07-08T23:50:32.901Z,63.82
2018-07-08T23:53:00.471Z,63.83
2018-07-08T23:55:27.753Z,63.80
2018-07-08T23:57:55.076Z,63.73
